createdAt,value
2023-01-13T00:00:25.931Z,988.6
2023-01-13T00:01:27.138Z,988.6
2023-01-13T00:02:27.836Z,988.6
2023-01-13T00:03:28.789Z,988.6
2023-01-13T00:04:30.237Z,988.6
2023-01-13T00:05:31.264Z,988.6
2023-01-13T00:06:32.681Z,988.6
2023-01-13T00:07:33.815Z,988.6
2023-01-13T00:08:34.954Z,988.5
2023-01-13T00:09:36.165Z,988.5
2023-01-13T00:10:36.768Z,988.5
2023-01-13T00:11:38.187Z,988.5
2023-01-13T00:12:39.355Z,988.5
2023-01-13T00:13:40.748Z,988.5
2023-01-13T00:14:41.635Z,988.5
2023-01-13T00:15:42.608Z,988.6
2023-01-13T00:16:43.511Z,988.5
2023-01-13T00:17:44.660Z,988.5
2023-01-13T00:18:45.810Z,988.5
2023-01-13T00:19:46.855Z,988.5
2023-01-13T00:20:48.025Z,988.5
2023-01-13T00:21:49.160Z,988.5
2023-01-13T00:22:50.056Z,988.5
2023-01-13T00:23:51.199Z,988.4
2023-01-13T00:24:52.411Z,988.4
2023-01-13T00:25:53.535Z,988.4
2023-01-13T00:26:54.675Z,988.4
2023-01-13T00:27:55.533Z,988.4
2023-01-13T00:28:56.424Z,988.4
2023-01-13T00:29:57.562Z,988.5
2023-01-13T00:30:58.910Z,988.4
2023-01-13T00:32:00.119Z,988.4
2023-01-13T00:33:01.276Z,988.4
2023-01-13T00:34:02.177Z,988.4
2023-01-13T00:35:03.051Z,988.4
2023-01-13T00:36:04.216Z,988.4
2023-01-13T00:37:05.613Z,988.4
2023-01-13T00:38:06.461Z,988.3
2023-01-13T00:39:07.635Z,988.3
2023-01-13T00:40:08.965Z,988.3
2023-01-13T00:41:09.887Z,988.3
2023-01-13T00:42:10.775Z,988.3
2023-01-13T00:43:12.189Z,988.3
2023-01-13T00:44:13.330Z,988.3
2023-01-13T00:45:14.475Z,988.3
2023-01-13T00:46:15.548Z,988.3
2023-01-13T00:47:16.680Z,988.3
2023-01-13T00:48:17.850Z,988.3
2023-01-13T00:49:19.008Z,988.3
2023-01-13T00:50:20.403Z,988.3
2023-01-13T00:51:21.371Z,988.3
2023-01-13T00:52:22.248Z,988.3
2023-01-13T00:53:23.668Z,988.2
2023-01-13T00:54:25.092Z,988.3
2023-01-13T00:55:26.279Z,988.2
2023-01-13T00:56:41.462Z,988.2
2023-01-13T00:57:42.673Z,988.2
2023-01-13T00:58:43.563Z,988.2
2023-01-13T00:59:44.403Z,988.2
2023-01-13T01:00:45.277Z,988.2
2023-01-13T01:01:46.805Z,988.1
2023-01-13T01:02:48.521Z,988.2
2023-01-13T01:03:49.445Z,988.2
2023-01-13T01:04:50.458Z,988.2
2023-01-13T01:05:51.193Z,988.2
2023-01-13T01:06:52.352Z,988.1
2023-01-13T01:07:53.523Z,988.1
2023-01-13T01:08:54.159Z,988.1
2023-01-13T01:09:55.050Z,988.2
2023-01-13T01:10:56.186Z,988.2
2023-01-13T01:11:57.321Z,988.2
2023-01-13T01:12:58.736Z,988.2
2023-01-13T01:13:59.908Z,988.2
2023-01-13T01:15:01.360Z,988.2
2023-01-13T01:16:02.011Z,988.2
2023-01-13T01:17:02.985Z,988.2
2023-01-13T01:18:03.881Z,988.2
2023-01-13T01:19:04.494Z,988.3
2023-01-13T01:20:05.735Z,988.3
2023-01-13T01:21:06.589Z,988.3
2023-01-13T01:22:07.472Z,988.3
2023-01-13T01:23:08.332Z,988.3
2023-01-13T01:24:08.943Z,988.3
2023-01-13T01:25:09.839Z,988.2
2023-01-13T01:26:10.491Z,988.2
2023-01-13T01:27:11.665Z,988.2
2023-01-13T01:28:12.520Z,988.2
2023-01-13T01:29:13.939Z,988.2
2023-01-13T01:30:14.839Z,988.3
2023-01-13T01:31:15.637Z,988.2
2023-01-13T01:32:16.631Z,988.3
2023-01-13T01:33:17.776Z,988.3
2023-01-13T01:34:18.658Z,988.2
2023-01-13T01:35:19.605Z,988.2
2023-01-13T01:36:20.492Z,988.2
2023-01-13T01:37:21.621Z,988.2
2023-01-13T01:38:22.514Z,988.2
2023-01-13T01:39:23.150Z,988.2
2023-01-13T01:40:24.272Z,988.1
2023-01-13T01:41:25.199Z,988.2
2023-01-13T01:42:25.800Z,988.2
2023-01-13T01:43:26.935Z,988.2
2023-01-13T01:44:28.070Z,988.2
2023-01-13T01:45:29.492Z,988.2
2023-01-13T01:46:30.771Z,988.2
2023-01-13T01:47:31.959Z,988.1
2023-01-13T01:48:32.910Z,988.1
2023-01-13T01:49:33.764Z,988.1
2023-01-13T01:50:34.694Z,988.1
2023-01-13T01:51:35.281Z,988.1
2023-01-13T01:52:36.135Z,988.1
2023-01-13T01:53:37.031Z,988.1
2023-01-13T01:54:38.211Z,988.1
2023-01-13T01:55:39.624Z,988.1
2023-01-13T01:56:40.480Z,988.1
2023-01-13T01:57:41.337Z,988.2
2023-01-13T01:58:42.246Z,988.1
2023-01-13T01:59:43.434Z,988.1
2023-01-13T02:00:44.339Z,988.1
2023-01-13T02:01:46.016Z,988.1
2023-01-13T02:02:47.112Z,988
2023-01-13T02:03:48.086Z,988
2023-01-13T02:04:48.988Z,988
2023-01-13T02:05:49.870Z,988
2023-01-13T02:06:50.770Z,988
2023-01-13T02:07:51.905Z,988
2023-01-13T02:08:53.047Z,988
2023-01-13T02:09:54.478Z,988
2023-01-13T02:10:55.347Z,988
2023-01-13T02:11:56.206Z,988
2023-01-13T02:12:57.625Z,988
2023-01-13T02:13:58.761Z,988
2023-01-13T02:14:59.927Z,988
2023-01-13T02:16:01.606Z,988
2023-01-13T02:17:02.413Z,988
2023-01-13T02:18:03.274Z,988
2023-01-13T02:19:03.888Z,988
2023-01-13T02:20:05.058Z,987.9
2023-01-13T02:21:06.516Z,987.9
2023-01-13T02:22:07.605Z,987.9
2023-01-13T02:23:09.091Z,987.8
2023-01-13T02:24:10.016Z,987.8
2023-01-13T02:25:11.492Z,987.8
2023-01-13T02:26:13.201Z,987.7
2023-01-13T02:27:14.343Z,987.7
2023-01-13T02:28:15.706Z,987.8
2023-01-13T02:29:16.861Z,987.8
2023-01-13T02:30:17.733Z,987.8
2023-01-13T02:31:19.226Z,987.8
2023-01-13T02:32:20.518Z,987.8
2023-01-13T02:33:21.138Z,987.8
2023-01-13T02:34:22.542Z,987.8
2023-01-13T02:35:23.436Z,987.7
2023-01-13T02:36:24.592Z,987.7
2023-01-13T02:37:25.703Z,987.7
2023-01-13T02:38:26.571Z,987.7
2023-01-13T02:39:27.978Z,987.7
2023-01-13T02:40:29.111Z,987.7
2023-01-13T02:41:30.009Z,987.6
2023-01-13T02:42:30.862Z,987.6
2023-01-13T02:43:32.000Z,987.6
2023-01-13T02:44:33.425Z,987.6
2023-01-13T02:45:34.381Z,987.6
2023-01-13T02:46:35.789Z,987.6
2023-01-13T02:47:36.637Z,987.6
2023-01-13T02:48:37.533Z,987.6
2023-01-13T02:49:38.421Z,987.6
2023-01-13T02:50:39.566Z,987.6
2023-01-13T02:51:40.763Z,987.6
2023-01-13T02:52:41.622Z,987.7
2023-01-13T02:53:42.506Z,987.6
2023-01-13T02:54:43.091Z,987.6
2023-01-13T02:55:43.948Z,987.6
2023-01-13T02:56:44.584Z,987.6
2023-01-13T02:57:45.762Z,987.6
2023-01-13T02:58:46.625Z,987.5
2023-01-13T02:59:47.774Z,987.6
2023-01-13T03:00:49.297Z,987.6
2023-01-13T03:01:51.112Z,987.6
2023-01-13T03:02:52.955Z,987.6
2023-01-13T03:03:54.330Z,987.6
2023-01-13T03:04:55.249Z,987.5
2023-01-13T03:05:55.836Z,987.5
2023-01-13T03:06:56.521Z,987.5
2023-01-13T03:07:57.361Z,987.5
2023-01-13T03:08:58.221Z,987.5
2023-01-13T03:09:59.407Z,987.5
2023-01-13T03:11:00.304Z,987.5
2023-01-13T03:12:01.723Z,987.5
2023-01-13T03:13:02.994Z,987.5
2023-01-13T03:14:03.892Z,987.5
2023-01-13T03:15:05.039Z,987.4
2023-01-13T03:16:06.234Z,987.4
2023-01-13T03:17:07.349Z,987.4
2023-01-13T03:18:08.247Z,987.4
2023-01-13T03:19:09.154Z,987.4
2023-01-13T03:20:09.785Z,987.4
2023-01-13T03:21:10.943Z,987.4
2023-01-13T03:22:11.819Z,987.4
2023-01-13T03:23:12.646Z,987.4
2023-01-13T03:24:13.563Z,987.4
2023-01-13T03:25:14.882Z,987.4
2023-01-13T03:26:15.797Z,987.5
2023-01-13T03:27:16.920Z,987.5
2023-01-13T03:28:17.670Z,987.5
2023-01-13T03:29:19.085Z,987.4
2023-01-13T03:30:19.983Z,987.4
2023-01-13T03:31:21.122Z,987.4
2023-01-13T03:32:22.033Z,987.4
2023-01-13T03:33:23.217Z,987.4
2023-01-13T03:34:24.355Z,987.4
2023-01-13T03:35:25.220Z,987.5
2023-01-13T03:36:26.628Z,987.5
2023-01-13T03:37:27.785Z,987.5
2023-01-13T03:38:28.656Z,987.4
2023-01-13T03:39:29.569Z,987.5
2023-01-13T03:40:30.992Z,987.5
2023-01-13T03:41:32.227Z,987.5
2023-01-13T03:42:33.514Z,987.6
2023-01-13T03:43:34.372Z,987.6
2023-01-13T03:44:35.511Z,987.6
2023-01-13T03:45:36.565Z,987.6
2023-01-13T03:46:37.492Z,987.5
2023-01-13T03:47:38.666Z,987.5
2023-01-13T03:48:39.294Z,987.5
2023-01-13T03:49:40.432Z,987.6
2023-01-13T03:50:41.292Z,987.6
2023-01-13T03:51:42.186Z,987.6
2023-01-13T03:52:43.074Z,987.5
2023-01-13T03:53:43.944Z,987.4
2023-01-13T03:54:45.076Z,987.5
2023-01-13T03:55:46.215Z,987.6
2023-01-13T03:56:47.113Z,987.6
2023-01-13T03:57:48.016Z,987.5
2023-01-13T03:58:49.180Z,987.6
2023-01-13T03:59:50.322Z,987.6
2023-01-13T04:00:50.939Z,987.5
2023-01-13T04:01:52.422Z,987.6
2023-01-13T04:02:54.032Z,987.5
2023-01-13T04:03:55.640Z,987.6
2023-01-13T04:04:56.623Z,987.6
2023-01-13T04:05:57.481Z,987.6
2023-01-13T04:06:58.618Z,987.5
2023-01-13T04:07:59.570Z,987.6
2023-01-13T04:09:00.959Z,987.8
2023-01-13T04:10:02.474Z,987.8
2023-01-13T04:11:03.709Z,987.7
2023-01-13T04:12:04.864Z,987.7
2023-01-13T04:13:06.009Z,987.8
2023-01-13T04:14:06.861Z,987.8
2023-01-13T04:15:07.758Z,987.8
2023-01-13T04:16:09.223Z,987.8
2023-01-13T04:17:10.200Z,987.8
2023-01-13T04:18:11.348Z,987.8
2023-01-13T04:19:12.477Z,987.8
2023-01-13T04:20:13.377Z,987.8
2023-01-13T04:21:14.515Z,987.8
2023-01-13T04:22:15.698Z,987.8
2023-01-13T04:23:16.579Z,987.9
2023-01-13T04:24:17.733Z,987.9
2023-01-13T04:25:18.655Z,988
2023-01-13T04:26:19.556Z,988
2023-01-13T04:27:20.441Z,988.1
2023-01-13T04:28:21.578Z,988.1
2023-01-13T04:29:22.511Z,988
2023-01-13T04:30:23.657Z,988
2023-01-13T04:31:24.977Z,988.2
2023-01-13T04:32:25.801Z,988.1
2023-01-13T04:33:26.657Z,988.1
2023-01-13T04:34:28.681Z,988
2023-01-13T04:35:29.589Z,988.1
2023-01-13T04:36:30.267Z,988.1
2023-01-13T04:37:31.368Z,987.8
2023-01-13T04:38:32.253Z,987.9
2023-01-13T04:39:33.144Z,987.9
2023-01-13T04:40:34.310Z,987.8
2023-01-13T04:41:35.447Z,987.8
2023-01-13T04:42:36.587Z,987.9
2023-01-13T04:43:37.491Z,987.9
2023-01-13T04:44:38.343Z,987.9
2023-01-13T04:45:39.240Z,987.9
2023-01-13T04:46:40.524Z,987.9
2023-01-13T04:47:41.137Z,987.9
2023-01-13T04:48:42.037Z,987.9
2023-01-13T04:49:43.174Z,987.9
2023-01-13T04:50:44.592Z,987.9
2023-01-13T04:51:45.536Z,988
2023-01-13T04:52:46.132Z,987.9
2023-01-13T04:53:46.793Z,987.9
2023-01-13T04:54:47.900Z,987.9
2023-01-13T04:55:48.760Z,987.8
2023-01-13T04:56:49.891Z,987.8
2023-01-13T04:57:51.303Z,987.8
2023-01-13T04:58:51.923Z,987.9
2023-01-13T04:59:53.150Z,987.8
2023-01-13T05:00:54.482Z,987.7
2023-01-13T05:01:56.009Z,987.7
2023-01-13T05:02:57.287Z,987.6
2023-01-13T05:03:58.428Z,987.7
2023-01-13T05:04:59.617Z,987.6
2023-01-13T05:06:00.644Z,987.7
2023-01-13T05:07:01.575Z,987.8
2023-01-13T05:08:02.469Z,987.8
2023-01-13T05:09:03.919Z,987.7
2023-01-13T05:10:04.799Z,987.7
2023-01-13T05:11:05.936Z,987.7
2023-01-13T05:12:07.416Z,987.8
2023-01-13T05:13:08.274Z,987.9
2023-01-13T05:14:09.141Z,987.9
2023-01-13T05:15:10.546Z,988
2023-01-13T05:16:12.083Z,988.1
2023-01-13T05:17:13.014Z,988.1
2023-01-13T05:18:13.914Z,988.1
2023-01-13T05:19:14.809Z,988.2
2023-01-13T05:20:15.711Z,988.2
2023-01-13T05:21:16.646Z,988.1
2023-01-13T05:22:17.558Z,987.9
2023-01-13T05:23:18.473Z,987.8
2023-01-13T05:24:19.449Z,987.8
2023-01-13T05:25:20.063Z,987.7
2023-01-13T05:26:20.947Z,987.7
2023-01-13T05:27:21.806Z,987.7
2023-01-13T05:28:22.708Z,987.7
2023-01-13T05:29:23.845Z,987.7
2023-01-13T05:30:24.781Z,987.6
2023-01-13T05:31:25.492Z,987.5
2023-01-13T05:32:27.109Z,987.6
2023-01-13T05:33:28.246Z,987.6
2023-01-13T05:34:29.142Z,987.8
2023-01-13T05:35:30.313Z,987.9
2023-01-13T05:36:31.176Z,987.9
2023-01-13T05:37:31.790Z,987.9
2023-01-13T05:38:32.691Z,988
2023-01-13T05:39:33.855Z,987.9
2023-01-13T05:40:35.018Z,987.8
2023-01-13T05:41:36.304Z,987.9
2023-01-13T05:42:38.079Z,987.9
2023-01-13T05:43:39.224Z,987.9
2023-01-13T05:44:40.115Z,987.9
2023-01-13T05:45:41.245Z,988
2023-01-13T05:46:42.640Z,988
2023-01-13T05:47:44.128Z,988
2023-01-13T05:48:45.305Z,988.1
2023-01-13T05:49:45.963Z,988
2023-01-13T05:50:46.813Z,988
2023-01-13T05:51:47.728Z,988
2023-01-13T05:52:48.890Z,987.9
2023-01-13T05:53:50.019Z,987.8
2023-01-13T05:54:51.193Z,987.6
2023-01-13T05:55:52.589Z,987.6
2023-01-13T05:56:53.987Z,987.8
2023-01-13T05:57:55.130Z,987.9
2023-01-13T05:58:56.545Z,987.9
2023-01-13T05:59:57.686Z,987.9
2023-01-13T06:00:58.952Z,987.9
2023-01-13T06:02:00.184Z,987.8
2023-01-13T06:03:01.497Z,987.8
2023-01-13T06:04:02.635Z,987.7
2023-01-13T06:05:03.842Z,987.7
2023-01-13T06:06:05.155Z,987.8
2023-01-13T06:07:06.273Z,987.9
2023-01-13T06:08:07.176Z,988
2023-01-13T06:09:08.634Z,988
2023-01-13T06:10:09.796Z,988.2
2023-01-13T06:11:11.188Z,988.2
2023-01-13T06:12:12.324Z,988.2
2023-01-13T06:13:13.519Z,988.2
2023-01-13T06:14:14.646Z,988.2
2023-01-13T06:15:15.829Z,988.2
2023-01-13T06:16:16.979Z,988.2
2023-01-13T06:17:18.517Z,988.2
2023-01-13T06:18:19.417Z,988.2
2023-01-13T06:19:20.548Z,988.1
2023-01-13T06:20:21.733Z,988.2
2023-01-13T06:21:22.755Z,988.1
2023-01-13T06:22:23.610Z,988
2023-01-13T06:23:24.255Z,988
2023-01-13T06:24:25.175Z,988
2023-01-13T06:25:26.103Z,988
2023-01-13T06:26:27.217Z,988
2023-01-13T06:27:28.393Z,988
2023-01-13T06:28:29.528Z,988
2023-01-13T06:29:30.712Z,988.1
2023-01-13T06:30:31.566Z,988.2
2023-01-13T06:31:32.769Z,988.2
2023-01-13T06:32:34.318Z,988.2
2023-01-13T06:33:35.430Z,988.2
2023-01-13T06:34:36.579Z,988.3
2023-01-13T06:35:37.707Z,988.4
2023-01-13T06:36:38.839Z,988.4
2023-01-13T06:37:39.468Z,988.5
2023-01-13T06:38:40.596Z,988.5
2023-01-13T06:39:42.014Z,988.6
2023-01-13T06:40:43.181Z,988.7
2023-01-13T06:41:44.289Z,988.7
2023-01-13T06:42:45.143Z,988.7
2023-01-13T06:43:46.008Z,988.7
2023-01-13T06:44:46.860Z,988.6
2023-01-13T06:45:48.560Z,988.5
2023-01-13T06:46:50.109Z,988.5
2023-01-13T06:47:51.274Z,988.5
2023-01-13T06:48:52.165Z,988.4
2023-01-13T06:49:53.575Z,988.4
2023-01-13T06:50:54.473Z,988.4
2023-01-13T06:51:55.888Z,988.4
2023-01-13T06:52:56.791Z,988.5
2023-01-13T06:53:57.711Z,988.6
2023-01-13T06:54:58.604Z,988.5
2023-01-13T06:55:59.777Z,988.4
2023-01-13T06:57:00.885Z,988.5
2023-01-13T06:58:01.736Z,988.5
2023-01-13T06:59:02.603Z,988.5
2023-01-13T07:00:03.447Z,988.4
2023-01-13T07:01:04.718Z,988.3
2023-01-13T07:02:05.991Z,988.2
2023-01-13T07:03:07.694Z,988.1
2023-01-13T07:04:08.829Z,988.2
2023-01-13T07:05:10.244Z,988.2
2023-01-13T07:06:11.095Z,988.3
2023-01-13T07:07:11.956Z,988.4
2023-01-13T07:08:12.858Z,988.4
2023-01-13T07:09:13.716Z,988.5
2023-01-13T07:10:14.635Z,988.4
2023-01-13T07:11:15.534Z,988.4
2023-01-13T07:12:16.914Z,988.3
2023-01-13T07:13:17.777Z,988.3
2023-01-13T07:14:18.904Z,988.4
2023-01-13T07:15:19.820Z,988.3
2023-01-13T07:16:21.045Z,988.3
2023-01-13T07:17:22.060Z,988.3
2023-01-13T07:18:23.235Z,988.4
2023-01-13T07:19:24.324Z,988.4
2023-01-13T07:20:25.512Z,988.5
2023-01-13T07:21:26.361Z,988.5
2023-01-13T07:22:27.781Z,988.5
2023-01-13T07:23:28.953Z,988.5
2023-01-13T07:24:30.370Z,988.4
2023-01-13T07:25:31.503Z,988.5
2023-01-13T07:26:32.719Z,988.5
2023-01-13T07:27:33.342Z,988.5
2023-01-13T07:28:34.760Z,988.5
2023-01-13T07:29:35.648Z,988.5
2023-01-13T07:30:36.550Z,988.4
2023-01-13T07:31:37.820Z,988.4
2023-01-13T07:32:39.043Z,988.4
2023-01-13T07:33:40.205Z,988.4
2023-01-13T07:34:40.817Z,988.4
2023-01-13T07:35:41.713Z,988.5
2023-01-13T07:36:42.904Z,988.5
2023-01-13T07:37:43.756Z,988.5
2023-01-13T07:38:45.010Z,988.5
2023-01-13T07:39:46.150Z,988.5
2023-01-13T07:40:47.367Z,988.4
2023-01-13T07:41:48.496Z,988.5
2023-01-13T07:42:49.380Z,988.4
2023-01-13T07:43:50.003Z,988.4
2023-01-13T07:44:51.134Z,988.4
2023-01-13T07:45:52.501Z,988.3
2023-01-13T07:46:54.418Z,988.3
2023-01-13T07:47:55.644Z,988.3
2023-01-13T07:48:56.501Z,988.2
2023-01-13T07:49:57.638Z,988.2
2023-01-13T07:50:58.533Z,988.2
2023-01-13T07:51:59.953Z,988.2
2023-01-13T07:53:01.084Z,988.2
2023-01-13T07:54:02.034Z,988.2
2023-01-13T07:55:02.878Z,988.2
2023-01-13T07:56:04.021Z,988.2
2023-01-13T07:57:05.174Z,988.2
2023-01-13T07:58:06.008Z,988.2
2023-01-13T07:59:06.905Z,988.1
2023-01-13T08:00:08.041Z,988.1
2023-01-13T08:01:09.780Z,988.2
2023-01-13T08:02:11.505Z,988.2
2023-01-13T08:03:13.548Z,988.1
2023-01-13T08:04:14.710Z,988
2023-01-13T08:05:15.626Z,988
2023-01-13T08:06:16.809Z,988.1
2023-01-13T08:07:17.936Z,988.1
2023-01-13T08:08:19.102Z,988.1
2023-01-13T08:09:20.277Z,988.1
2023-01-13T08:10:21.689Z,988.1
2023-01-13T08:11:23.872Z,988.1
2023-01-13T08:12:24.516Z,988.1
2023-01-13T08:13:25.665Z,988.2
2023-01-13T08:14:26.861Z,988.2
2023-01-13T08:15:27.741Z,988.3
2023-01-13T08:16:28.977Z,988.3
2023-01-13T08:17:30.107Z,988.3
2023-01-13T08:18:31.032Z,988.3
2023-01-13T08:19:32.211Z,988.4
2023-01-13T08:20:33.346Z,988.4
2023-01-13T08:21:34.527Z,988.4
2023-01-13T08:22:35.425Z,988.5
2023-01-13T08:23:36.278Z,988.4
2023-01-13T08:24:37.178Z,988.4
2023-01-13T08:25:38.310Z,988.4
2023-01-13T08:26:39.728Z,988.3
2023-01-13T08:27:40.699Z,988.4
2023-01-13T08:28:41.566Z,988.4
2023-01-13T08:29:42.479Z,988.5
2023-01-13T08:30:44.316Z,988.5
2023-01-13T08:31:45.523Z,988.6
2023-01-13T08:32:46.656Z,988.6
2023-01-13T08:33:47.802Z,988.6
2023-01-13T08:34:48.418Z,988.6
2023-01-13T08:35:49.829Z,988.6
2023-01-13T08:36:51.019Z,988.6
2023-01-13T08:37:52.431Z,988.7
2023-01-13T08:38:53.107Z,988.7
2023-01-13T08:39:54.255Z,988.7
2023-01-13T08:40:55.090Z,988.7
2023-01-13T08:41:56.296Z,988.7
2023-01-13T08:42:57.437Z,988.7
2023-01-13T08:43:58.307Z,988.7
2023-01-13T08:44:59.448Z,988.8
2023-01-13T08:46:00.294Z,988.8
2023-01-13T08:47:01.690Z,988.7
2023-01-13T08:48:03.075Z,988.8
2023-01-13T08:49:03.928Z,988.9
2023-01-13T08:50:04.871Z,988.9
2023-01-13T08:51:06.025Z,988.9
2023-01-13T08:52:07.258Z,988.9
2023-01-13T08:53:08.771Z,988.9
2023-01-13T08:54:09.669Z,989
2023-01-13T08:55:10.571Z,989
2023-01-13T08:56:11.426Z,988.9
2023-01-13T08:57:12.787Z,988.9
2023-01-13T08:58:16.520Z,989
2023-01-13T08:59:17.500Z,989
2023-01-13T09:00:18.349Z,988.9
2023-01-13T09:01:19.954Z,988.9
2023-01-13T09:02:21.710Z,988.9
2023-01-13T09:03:22.630Z,988.9
2023-01-13T09:04:24.429Z,988.9
2023-01-13T09:05:25.558Z,988.9
2023-01-13T09:06:26.480Z,988.9
2023-01-13T09:07:27.381Z,988.8
2023-01-13T09:08:28.250Z,988.9
2023-01-13T09:09:29.391Z,988.8
2023-01-13T09:10:30.292Z,988.8
2023-01-13T09:11:31.427Z,988.8
2023-01-13T09:12:32.334Z,988.8
2023-01-13T09:13:32.995Z,988.8
2023-01-13T09:14:34.097Z,988.7
2023-01-13T09:15:35.511Z,988.8
2023-01-13T09:16:36.732Z,988.7
2023-01-13T09:17:37.591Z,988.7
2023-01-13T09:18:38.219Z,988.7
2023-01-13T09:19:39.352Z,988.7
2023-01-13T09:20:40.665Z,988.7
2023-01-13T09:21:41.308Z,988.7
2023-01-13T09:22:42.242Z,988.7
2023-01-13T09:23:43.660Z,988.7
2023-01-13T09:24:44.852Z,988.7
2023-01-13T09:25:45.985Z,988.7
2023-01-13T09:26:47.399Z,988.7
2023-01-13T09:27:48.260Z,988.7
2023-01-13T09:28:48.927Z,988.7
2023-01-13T09:29:49.812Z,988.7
2023-01-13T09:30:51.361Z,988.7
2023-01-13T09:31:52.299Z,988.7
2023-01-13T09:32:53.153Z,988.8
2023-01-13T09:33:53.775Z,988.9
2023-01-13T09:34:55.010Z,988.8
2023-01-13T09:35:56.424Z,988.9
2023-01-13T09:36:57.048Z,988.8
2023-01-13T09:37:58.186Z,988.9
2023-01-13T09:38:58.800Z,988.9
2023-01-13T09:39:59.696Z,989
2023-01-13T09:41:00.329Z,988.9
2023-01-13T09:42:01.744Z,989
2023-01-13T09:43:02.389Z,989
2023-01-13T09:44:03.545Z,989
2023-01-13T09:45:04.177Z,989
2023-01-13T09:46:05.416Z,989.1
2023-01-13T09:47:06.381Z,989.1
2023-01-13T09:48:07.555Z,989.1
2023-01-13T09:49:08.469Z,989.1
2023-01-13T09:50:09.407Z,989.1
2023-01-13T09:51:10.495Z,989.1
2023-01-13T09:52:11.852Z,989.1
2023-01-13T09:53:13.035Z,989
2023-01-13T09:54:13.976Z,989
2023-01-13T09:55:15.094Z,989
2023-01-13T09:56:15.690Z,988.9
2023-01-13T09:57:16.901Z,989
2023-01-13T09:58:17.763Z,989
2023-01-13T09:59:18.919Z,989
2023-01-13T10:00:19.926Z,989
2023-01-13T10:01:21.153Z,989
2023-01-13T10:02:22.061Z,989
2023-01-13T10:03:23.737Z,989
2023-01-13T10:04:24.701Z,989
2023-01-13T10:05:25.711Z,989
2023-01-13T10:06:26.896Z,988.9
2023-01-13T10:07:27.756Z,988.9
2023-01-13T10:08:29.168Z,989
2023-01-13T10:09:30.817Z,989
2023-01-13T10:10:32.229Z,988.9
2023-01-13T10:11:33.373Z,988.9
2023-01-13T10:12:34.271Z,988.9
2023-01-13T10:13:34.887Z,988.9
2023-01-13T10:14:35.820Z,988.9
2023-01-13T10:15:37.159Z,989
2023-01-13T10:16:43.208Z,989
2023-01-13T10:17:44.328Z,988.9
2023-01-13T10:18:45.194Z,989
2023-01-13T10:19:46.099Z,988.9
2023-01-13T10:20:47.020Z,989
2023-01-13T10:21:48.165Z,989
2023-01-13T10:22:49.295Z,989
2023-01-13T10:23:50.710Z,988.9
2023-01-13T10:24:54.656Z,988.9
2023-01-13T10:25:55.970Z,988.9
2023-01-13T10:26:57.152Z,988.9
2023-01-13T10:27:58.064Z,989
2023-01-13T10:28:58.969Z,989
2023-01-13T10:30:00.197Z,988.9
2023-01-13T10:31:01.215Z,989
2023-01-13T10:32:02.157Z,989
2023-01-13T10:33:03.071Z,989.1
2023-01-13T10:34:03.986Z,989
2023-01-13T10:35:05.393Z,989
2023-01-13T10:36:06.617Z,989
2023-01-13T10:37:07.758Z,989
2023-01-13T10:38:08.931Z,989
2023-01-13T10:39:10.069Z,989
2023-01-13T10:40:11.296Z,989.1
2023-01-13T10:41:12.707Z,989
2023-01-13T10:42:13.601Z,989
2023-01-13T10:43:14.735Z,989
2023-01-13T10:44:15.663Z,989
2023-01-13T10:45:16.821Z,989
2023-01-13T10:46:17.992Z,988.9
2023-01-13T10:47:19.423Z,988.9
2023-01-13T10:48:20.048Z,988.9
2023-01-13T10:49:21.188Z,988.9
2023-01-13T10:50:22.077Z,988.9
2023-01-13T10:51:23.295Z,988.9
2023-01-13T10:52:24.857Z,989
2023-01-13T10:53:26.032Z,989
2023-01-13T10:54:27.188Z,989
2023-01-13T10:55:28.588Z,988.9
2023-01-13T10:56:29.850Z,989
2023-01-13T10:57:31.045Z,989
2023-01-13T10:58:32.100Z,989
2023-01-13T10:59:33.506Z,989
2023-01-13T11:00:34.950Z,989
2023-01-13T11:01:35.772Z,989
2023-01-13T11:02:37.204Z,989.1
2023-01-13T11:03:38.376Z,989.1
2023-01-13T11:04:39.625Z,989
2023-01-13T11:05:40.968Z,989
2023-01-13T11:06:41.625Z,988.9
2023-01-13T11:07:42.799Z,989.1
2023-01-13T11:08:43.655Z,989
2023-01-13T11:09:45.068Z,988.9
2023-01-13T11:10:45.978Z,989
2023-01-13T11:11:47.119Z,988.9
2023-01-13T11:12:48.793Z,989
2023-01-13T11:13:49.931Z,989
2023-01-13T11:14:50.556Z,988.9
2023-01-13T11:15:51.787Z,989
2023-01-13T11:16:54.338Z,989
2023-01-13T11:17:54.972Z,989
2023-01-13T11:18:56.108Z,989.1
2023-01-13T11:19:57.251Z,989.1
2023-01-13T11:20:58.187Z,989
2023-01-13T11:21:58.792Z,989
2023-01-13T11:22:59.973Z,988.9
2023-01-13T11:24:00.860Z,989
2023-01-13T11:25:02.115Z,989.1
2023-01-13T11:26:02.967Z,989.1
2023-01-13T11:27:03.854Z,989.1
2023-01-13T11:28:05.257Z,989.1
2023-01-13T11:29:06.800Z,989.1
2023-01-13T11:30:07.986Z,989
2023-01-13T11:31:09.355Z,989
2023-01-13T11:32:10.883Z,989
2023-01-13T11:33:11.749Z,989
2023-01-13T11:34:12.606Z,989.1
2023-01-13T11:35:14.015Z,988.9
2023-01-13T11:36:14.634Z,989
2023-01-13T11:37:15.561Z,989.1
2023-01-13T11:38:17.012Z,989.2
2023-01-13T11:39:17.957Z,989.1
2023-01-13T11:40:18.575Z,989.2
2023-01-13T11:41:19.204Z,989.2
2023-01-13T11:42:20.094Z,989.2
2023-01-13T11:43:21.223Z,989.2
2023-01-13T11:44:22.124Z,989.2
2023-01-13T11:45:22.979Z,989.3
2023-01-13T11:46:23.742Z,989.3
2023-01-13T11:47:24.895Z,989.4
2023-01-13T11:48:25.793Z,989.3
2023-01-13T11:49:26.969Z,989.4
2023-01-13T11:50:28.152Z,989.4
2023-01-13T11:51:29.550Z,989.4
2023-01-13T11:52:30.948Z,989.4
2023-01-13T11:53:31.848Z,989.4
2023-01-13T11:54:33.031Z,989.3
2023-01-13T11:55:33.933Z,989.3
2023-01-13T11:56:35.070Z,989.3
2023-01-13T11:57:36.215Z,989.3
2023-01-13T11:58:51.452Z,989.3
2023-01-13T11:59:52.940Z,989.3
2023-01-13T12:00:54.204Z,989.3
2023-01-13T12:01:55.537Z,989.3
2023-01-13T12:02:56.555Z,989.3
2023-01-13T12:03:57.364Z,989.4
2023-01-13T12:04:58.262Z,989.4
2023-01-13T12:05:59.124Z,989.3
2023-01-13T12:06:59.744Z,989.3
2023-01-13T12:08:00.465Z,989.4
2023-01-13T12:09:01.399Z,989.3
2023-01-13T12:10:05.062Z,989.3
2023-01-13T12:11:10.387Z,989.3
2023-01-13T12:12:11.810Z,989.3
2023-01-13T12:13:12.933Z,989.3
2023-01-13T12:14:14.080Z,989.3
2023-01-13T12:15:15.491Z,989.2
2023-01-13T12:16:17.017Z,989.2
2023-01-13T12:17:18.052Z,989.2
2023-01-13T12:18:18.919Z,989.2
2023-01-13T12:19:20.107Z,989.2
2023-01-13T12:20:21.000Z,989.2
2023-01-13T12:21:21.622Z,989.3
2023-01-13T12:22:22.270Z,989.2
2023-01-13T12:23:23.114Z,989.2
2023-01-13T12:24:23.982Z,989.3
2023-01-13T12:25:25.120Z,989.2
2023-01-13T12:26:26.264Z,989.2
2023-01-13T12:27:27.157Z,989.3
2023-01-13T12:28:28.397Z,989.3
2023-01-13T12:29:29.585Z,989.3
2023-01-13T12:30:30.768Z,989.3
2023-01-13T12:31:31.726Z,989.3
2023-01-13T12:32:32.628Z,989.2
2023-01-13T12:33:33.497Z,989.3
2023-01-13T12:34:34.120Z,989.3
2023-01-13T12:35:34.977Z,989.2
2023-01-13T12:36:35.632Z,989.3
2023-01-13T12:37:36.765Z,989.3
2023-01-13T12:38:38.028Z,989.3
2023-01-13T12:39:38.900Z,989.3
2023-01-13T12:40:39.797Z,989.3
2023-01-13T12:41:40.708Z,989.3
2023-01-13T12:42:41.840Z,989.3
2023-01-13T12:43:42.755Z,989.3
2023-01-13T12:44:43.682Z,989.4
2023-01-13T12:45:44.961Z,989.3
2023-01-13T12:46:46.464Z,989.3
2023-01-13T12:47:47.917Z,989.4
2023-01-13T12:48:49.032Z,989.5
2023-01-13T12:49:49.928Z,989.4
2023-01-13T12:50:51.099Z,989.5
2023-01-13T12:51:52.235Z,989.5
2023-01-13T12:52:53.158Z,989.5
2023-01-13T12:53:54.717Z,989.5
2023-01-13T12:54:55.568Z,989.5
2023-01-13T12:55:56.462Z,989.5
2023-01-13T12:56:57.644Z,989.6
2023-01-13T12:57:58.793Z,989.6
2023-01-13T12:59:00.231Z,989.6
2023-01-13T13:00:00.843Z,989.4
2023-01-13T13:01:01.906Z,989.4
2023-01-13T13:02:03.465Z,989.5
2023-01-13T13:03:05.171Z,989.6
2023-01-13T13:04:06.394Z,989.7
2023-01-13T13:05:07.299Z,989.6
2023-01-13T13:06:08.721Z,989.6
2023-01-13T13:07:09.629Z,989.4
2023-01-13T13:08:10.759Z,989.5
2023-01-13T13:09:11.621Z,989.5
2023-01-13T13:10:13.037Z,989.5
2023-01-13T13:11:14.245Z,989.4
2023-01-13T13:12:15.413Z,989.4
2023-01-13T13:13:16.323Z,989.5
2023-01-13T13:14:17.459Z,989.5